sensor_id;sensor_type;location;lat;lon;timestamp;P1;durP1;ratioP1;P2;durP2;ratioP2
66609;SDS011;53468;48.276;14.416;2022-12-07T00:03:28;24.30;;;14.73;;
66609;SDS011;53468;48.276;14.416;2022-12-07T00:09:00;27.80;;;15.00;;
66609;SDS011;53468;48.276;14.416;2022-12-07T00:14:32;27.35;;;14.98;;
66609;SDS011;53468;48.276;14.416;2022-12-07T00:20:07;30.77;;;16.85;;
66609;SDS011;53468;48.276;14.416;2022-12-07T00:25:39;34.58;;;18.88;;
66609;SDS011;53468;48.276;14.416;2022-12-07T00:31:11;39.28;;;18.75;;
66609;SDS011;53468;48.276;14.416;2022-12-07T00:36:45;38.20;;;18.58;;
66609;SDS011;53468;48.276;14.416;2022-12-07T00:42:18;33.22;;;15.98;;
66609;SDS011;53468;48.276;14.416;2022-12-07T00:47:50;37.25;;;17.88;;
66609;SDS011;53468;48.276;14.416;2022-12-07T00:53:23;28.35;;;15.45;;
66609;SDS011;53468;48.276;14.416;2022-12-07T00:58:57;26.55;;;13.20;;
66609;SDS011;53468;48.276;14.416;2022-12-07T01:04:32;25.83;;;13.55;;
66609;SDS011;53468;48.276;14.416;2022-12-07T01:10:07;26.50;;;12.38;;
66609;SDS011;53468;48.276;14.416;2022-12-07T01:15:39;23.13;;;11.82;;
66609;SDS011;53468;48.276;14.416;2022-12-07T01:21:13;24.38;;;11.32;;
66609;SDS011;53468;48.276;14.416;2022-12-07T01:26:49;24.35;;;11.38;;
66609;SDS011;53468;48.276;14.416;2022-12-07T01:32:22;21.60;;;11.77;;
66609;SDS011;53468;48.276;14.416;2022-12-07T01:37:54;25.67;;;14.02;;
66609;SDS011;53468;48.276;14.416;2022-12-07T01:43:28;26.77;;;14.30;;
66609;SDS011;53468;48.276;14.416;2022-12-07T01:49:01;25.88;;;13.30;;
66609;SDS011;53468;48.276;14.416;2022-12-07T01:54:33;26.60;;;14.13;;
66609;SDS011;53468;48.276;14.416;2022-12-07T02:00:08;22.65;;;13.27;;
66609;SDS011;53468;48.276;14.416;2022-12-07T02:05:42;22.58;;;13.05;;
66609;SDS011;53468;48.276;14.416;2022-12-07T02:11:15;22.17;;;11.77;;
66609;SDS011;53468;48.276;14.416;2022-12-07T02:16:51;24.48;;;13.32;;
66609;SDS011;53468;48.276;14.416;2022-12-07T02:22:39;25.90;;;12.98;;
66609;SDS011;53468;48.276;14.416;2022-12-07T02:28:34;21.67;;;11.93;;
66609;SDS011;53468;48.276;14.416;2022-12-07T02:34:11;22.48;;;11.55;;
66609;SDS011;53468;48.276;14.416;2022-12-07T02:39:51;19.70;;;12.35;;
66609;SDS011;53468;48.276;14.416;2022-12-07T02:45:27;23.83;;;13.77;;
66609;SDS011;53468;48.276;14.416;2022-12-07T02:51:03;19.75;;;10.63;;
66609;SDS011;53468;48.276;14.416;2022-12-07T02:56:37;16.95;;;10.43;;
66609;SDS011;53468;48.276;14.416;2022-12-07T03:02:18;16.47;;;9.83;;
66609;SDS011;53468;48.276;14.416;2022-12-07T03:07:59;19.40;;;10.85;;
66609;SDS011;53468;48.276;14.416;2022-12-07T03:13:37;17.40;;;10.18;;
66609;SDS011;53468;48.276;14.416;2022-12-07T03:19:17;17.45;;;9.55;;
66609;SDS011;53468;48.276;14.416;2022-12-07T03:24:53;18.02;;;10.13;;
66609;SDS011;53468;48.276;14.416;2022-12-07T03:30:29;16.67;;;10.55;;
66609;SDS011;53468;48.276;14.416;2022-12-07T03:36:08;16.08;;;9.65;;
66609;SDS011;53468;48.276;14.416;2022-12-07T03:41:46;17.50;;;9.13;;
66609;SDS011;53468;48.276;14.416;2022-12-07T03:47:20;16.52;;;8.73;;
66609;SDS011;53468;48.276;14.416;2022-12-07T03:52:58;13.77;;;7.80;;
66609;SDS011;53468;48.276;14.416;2022-12-07T03:58:37;13.57;;;8.73;;
66609;SDS011;53468;48.276;14.416;2022-12-07T04:04:11;13.45;;;8.27;;
66609;SDS011;53468;48.276;14.416;2022-12-07T04:09:43;15.60;;;9.32;;
66609;SDS011;53468;48.276;14.416;2022-12-07T04:15:17;15.73;;;8.80;;
66609;SDS011;53468;48.276;14.416;2022-12-07T04:20:49;16.40;;;9.25;;
66609;SDS011;53468;48.276;14.416;2022-12-07T04:26:21;17.77;;;9.20;;
66609;SDS011;53468;48.276;14.416;2022-12-07T04:31:56;14.32;;;8.18;;
66609;SDS011;53468;48.276;14.416;2022-12-07T04:37:28;14.75;;;8.48;;
66609;SDS011;53468;48.276;14.416;2022-12-07T04:43:00;15.93;;;8.23;;
66609;SDS011;53468;48.276;14.416;2022-12-07T04:48:35;14.60;;;7.35;;
66609;SDS011;53468;48.276;14.416;2022-12-07T04:54:07;13.10;;;8.25;;
66609;SDS011;53468;48.276;14.416;2022-12-07T04:59:39;12.55;;;7.55;;
66609;SDS011;53468;48.276;14.416;2022-12-07T05:05:13;15.10;;;8.13;;
66609;SDS011;53468;48.276;14.416;2022-12-07T05:10:46;11.32;;;7.03;;
66609;SDS011;53468;48.276;14.416;2022-12-07T05:16:20;9.95;;;6.63;;
66609;SDS011;53468;48.276;14.416;2022-12-07T05:21:53;14.80;;;7.38;;
66609;SDS011;53468;48.276;14.416;2022-12-07T05:27:26;11.20;;;6.88;;
66609;SDS011;53468;48.276;14.416;2022-12-07T05:32:58;15.13;;;8.30;;
66609;SDS011;53468;48.276;14.416;2022-12-07T05:38:31;17.10;;;8.93;;
66609;SDS011;53468;48.276;14.416;2022-12-07T05:44:04;12.82;;;7.72;;
66609;SDS011;53468;48.276;14.416;2022-12-07T05:49:36;13.27;;;7.53;;
66609;SDS011;53468;48.276;14.416;2022-12-07T05:55:10;10.70;;;6.80;;
66609;SDS011;53468;48.276;14.416;2022-12-07T06:00:42;12.00;;;6.88;;
66609;SDS011;53468;48.276;14.416;2022-12-07T06:06:14;12.13;;;6.40;;
66609;SDS011;53468;48.276;14.416;2022-12-07T06:11:48;14.52;;;7.55;;
66609;SDS011;53468;48.276;14.416;2022-12-07T06:17:39;14.93;;;8.00;;
66609;SDS011;53468;48.276;14.416;2022-12-07T06:23:11;16.17;;;8.38;;
66609;SDS011;53468;48.276;14.416;2022-12-07T06:28:44;14.50;;;8.70;;
66609;SDS011;53468;48.276;14.416;2022-12-07T06:34:18;16.52;;;9.18;;
66609;SDS011;53468;48.276;14.416;2022-12-07T06:39:52;14.55;;;8.57;;
66609;SDS011;53468;48.276;14.416;2022-12-07T06:45:26;14.02;;;8.00;;
66609;SDS011;53468;48.276;14.416;2022-12-07T06:50:59;14.07;;;8.35;;
66609;SDS011;53468;48.276;14.416;2022-12-07T06:56:31;18.45;;;7.70;;
66609;SDS011;53468;48.276;14.416;2022-12-07T07:02:04;12.30;;;7.00;;
66609;SDS011;53468;48.276;14.416;2022-12-07T07:07:36;12.23;;;7.25;;
66609;SDS011;53468;48.276;14.416;2022-12-07T07:13:09;15.20;;;9.38;;
66609;SDS011;53468;48.276;14.416;2022-12-07T07:18:42;17.90;;;9.65;;
66609;SDS011;53468;48.276;14.416;2022-12-07T07:24:14;17.65;;;9.25;;
66609;SDS011;53468;48.276;14.416;2022-12-07T07:29:46;13.50;;;7.63;;
66609;SDS011;53468;48.276;14.416;2022-12-07T07:35:20;14.43;;;8.77;;
66609;SDS011;53468;48.276;14.416;2022-12-07T07:40:52;14.43;;;7.53;;
66609;SDS011;53468;48.276;14.416;2022-12-07T07:46:24;12.00;;;6.95;;
66609;SDS011;53468;48.276;14.416;2022-12-07T07:51:58;11.35;;;7.00;;
66609;SDS011;53468;48.276;14.416;2022-12-07T07:57:30;12.05;;;7.13;;
66609;SDS011;53468;48.276;14.416;2022-12-07T08:03:03;14.75;;;6.97;;
66609;SDS011;53468;48.276;14.416;2022-12-07T08:08:37;11.50;;;7.00;;
66609;SDS011;53468;48.276;14.416;2022-12-07T08:14:09;11.27;;;6.15;;
66609;SDS011;53468;48.276;14.416;2022-12-07T08:19:42;10.02;;;6.03;;
66609;SDS011;53468;48.276;14.416;2022-12-07T08:25:16;9.90;;;5.80;;
66609;SDS011;53468;48.276;14.416;2022-12-07T08:30:48;13.48;;;7.20;;
66609;SDS011;53468;48.276;14.416;2022-12-07T08:36:20;17.00;;;8.20;;
66609;SDS011;53468;48.276;14.416;2022-12-07T08:41:54;14.38;;;7.90;;
66609;SDS011;53468;48.276;14.416;2022-12-07T08:47:26;15.88;;;7.65;;
66609;SDS011;53468;48.276;14.416;2022-12-07T08:52:58;12.82;;;8.65;;
66609;SDS011;53468;48.276;14.416;2022-12-07T08:58:33;19.35;;;9.52;;
66609;SDS011;53468;48.276;14.416;2022-12-07T09:04:06;16.50;;;7.85;;
66609;SDS011;53468;48.276;14.416;2022-12-07T09:09:39;15.40;;;8.48;;
66609;SDS011;53468;48.276;14.416;2022-12-07T09:15:13;14.98;;;7.65;;
66609;SDS011;53468;48.276;14.416;2022-12-07T09:20:45;16.58;;;9.50;;
66609;SDS011;53468;48.276;14.416;2022-12-07T09:26:17;15.25;;;9.25;;
66609;SDS011;53468;48.276;14.416;2022-12-07T09:31:51;13.30;;;6.85;;
66609;SDS011;53468;48.276;14.416;2022-12-07T09:37:23;13.10;;;7.53;;
66609;SDS011;53468;48.276;14.416;2022-12-07T09:42:55;11.70;;;6.70;;
66609;SDS011;53468;48.276;14.416;2022-12-07T09:48:30;15.45;;;9.18;;
66609;SDS011;53468;48.276;14.416;2022-12-07T09:54:05;13.23;;;8.13;;
66609;SDS011;53468;48.276;14.416;2022-12-07T09:59:39;13.57;;;8.80;;
66609;SDS011;53468;48.276;14.416;2022-12-07T10:05:14;13.80;;;8.43;;
66609;SDS011;53468;48.276;14.416;2022-12-07T10:10:50;16.85;;;7.93;;
66609;SDS011;53468;48.276;14.416;2022-12-07T10:16:35;15.52;;;9.13;;
66609;SDS011;53468;48.276;14.416;2022-12-07T10:22:12;13.30;;;8.32;;
66609;SDS011;53468;48.276;14.416;2022-12-07T10:27:56;15.02;;;8.73;;
66609;SDS011;53468;48.276;14.416;2022-12-07T10:33:34;15.35;;;8.50;;
66609;SDS011;53468;48.276;14.416;2022-12-07T10:39:12;12.63;;;8.13;;
66609;SDS011;53468;48.276;14.416;2022-12-07T10:44:46;16.30;;;8.68;;
66609;SDS011;53468;48.276;14.416;2022-12-07T10:56:50;15.27;;;9.95;;
66609;SDS011;53468;48.276;14.416;2022-12-07T11:02:35;15.05;;;8.55;;
66609;SDS011;53468;48.276;14.416;2022-12-07T11:08:21;12.20;;;7.78;;
66609;SDS011;53468;48.276;14.416;2022-12-07T11:14:14;13.57;;;7.32;;
66609;SDS011;53468;48.276;14.416;2022-12-07T11:20:00;12.30;;;6.45;;
66609;SDS011;53468;48.276;14.416;2022-12-07T11:25:38;13.85;;;7.97;;
66609;SDS011;53468;48.276;14.416;2022-12-07T11:31:22;16.10;;;7.37;;
66609;SDS011;53468;48.276;14.416;2022-12-07T11:37:00;13.88;;;5.78;;
66609;SDS011;53468;48.276;14.416;2022-12-07T11:42:38;12.90;;;7.00;;
66609;SDS011;53468;48.276;14.416;2022-12-07T11:48:19;9.95;;;6.35;;
66609;SDS011;53468;48.276;14.416;2022-12-07T11:53:56;10.35;;;6.05;;
66609;SDS011;53468;48.276;14.416;2022-12-07T11:59:32;8.55;;;5.43;;
66609;SDS011;53468;48.276;14.416;2022-12-07T12:05:15;10.15;;;5.95;;
66609;SDS011;53468;48.276;14.416;2022-12-07T12:10:54;14.38;;;6.65;;
66609;SDS011;53468;48.276;14.416;2022-12-07T12:16:38;10.85;;;6.35;;
66609;SDS011;53468;48.276;14.416;2022-12-07T12:22:28;11.05;;;6.93;;
66609;SDS011;53468;48.276;14.416;2022-12-07T12:28:15;8.18;;;5.43;;
66609;SDS011;53468;48.276;14.416;2022-12-07T12:33:53;10.60;;;6.20;;
66609;SDS011;53468;48.276;14.416;2022-12-07T12:39:28;11.68;;;7.43;;
66609;SDS011;53468;48.276;14.416;2022-12-07T12:45:11;10.75;;;5.95;;
66609;SDS011;53468;48.276;14.416;2022-12-07T12:50:51;10.30;;;5.10;;
66609;SDS011;53468;48.276;14.416;2022-12-07T12:57:04;11.95;;;6.03;;
66609;SDS011;53468;48.276;14.416;2022-12-07T13:02:46;14.88;;;6.50;;
66609;SDS011;53468;48.276;14.416;2022-12-07T13:08:21;9.73;;;5.53;;
66609;SDS011;53468;48.276;14.416;2022-12-07T13:20:09;10.32;;;5.93;;
66609;SDS011;53468;48.276;14.416;2022-12-07T13:26:08;11.82;;;6.13;;
66609;SDS011;53468;48.276;14.416;2022-12-07T13:31:46;10.48;;;6.30;;
66609;SDS011;53468;48.276;14.416;2022-12-07T13:37:23;14.05;;;7.57;;
66609;SDS011;53468;48.276;14.416;2022-12-07T13:43:03;11.70;;;6.13;;
66609;SDS011;53468;48.276;14.416;2022-12-07T13:48:45;12.25;;;6.68;;
66609;SDS011;53468;48.276;14.416;2022-12-07T13:54:19;9.90;;;6.28;;
66609;SDS011;53468;48.276;14.416;2022-12-07T13:59:56;11.75;;;5.50;;
66609;SDS011;53468;48.276;14.416;2022-12-07T14:05:34;9.27;;;5.10;;
66609;SDS011;53468;48.276;14.416;2022-12-07T14:11:09;10.15;;;5.90;;
66609;SDS011;53468;48.276;14.416;2022-12-07T14:16:56;11.32;;;6.35;;
66609;SDS011;53468;48.276;14.416;2022-12-07T14:22:33;12.05;;;6.30;;
66609;SDS011;53468;48.276;14.416;2022-12-07T14:28:09;10.65;;;6.05;;
66609;SDS011;53468;48.276;14.416;2022-12-07T14:34:00;11.30;;;6.95;;
66609;SDS011;53468;48.276;14.416;2022-12-07T14:39:32;13.35;;;6.70;;
66609;SDS011;53468;48.276;14.416;2022-12-07T14:45:05;22.05;;;7.82;;
66609;SDS011;53468;48.276;14.416;2022-12-07T14:50:52;15.13;;;8.25;;
66609;SDS011;53468;48.276;14.416;2022-12-07T14:56:26;13.32;;;7.55;;
66609;SDS011;53468;48.276;14.416;2022-12-07T15:01:59;13.57;;;7.32;;
66609;SDS011;53468;48.276;14.416;2022-12-07T15:07:33;12.57;;;7.10;;
66609;SDS011;53468;48.276;14.416;2022-12-07T15:13:05;14.55;;;7.18;;
66609;SDS011;53468;48.276;14.416;2022-12-07T15:18:55;13.90;;;7.55;;
66609;SDS011;53468;48.276;14.416;2022-12-07T15:24:29;11.73;;;7.45;;
66609;SDS011;53468;48.276;14.416;2022-12-07T15:30:01;13.73;;;7.55;;
66609;SDS011;53468;48.276;14.416;2022-12-07T15:35:37;14.15;;;7.40;;
66609;SDS011;53468;48.276;14.416;2022-12-07T15:41:12;16.98;;;7.32;;
66609;SDS011;53468;48.276;14.416;2022-12-07T15:46:44;13.68;;;7.82;;
66609;SDS011;53468;48.276;14.416;2022-12-07T15:52:16;14.40;;;7.00;;
66609;SDS011;53468;48.276;14.416;2022-12-07T15:57:51;10.10;;;5.55;;
66609;SDS011;53468;48.276;14.416;2022-12-07T16:03:23;12.90;;;6.45;;
66609;SDS011;53468;48.276;14.416;2022-12-07T16:08:55;11.40;;;6.97;;
66609;SDS011;53468;48.276;14.416;2022-12-07T16:14:28;12.40;;;7.22;;
66609;SDS011;53468;48.276;14.416;2022-12-07T16:20:02;12.57;;;6.72;;
66609;SDS011;53468;48.276;14.416;2022-12-07T16:25:36;13.18;;;6.47;;
66609;SDS011;53468;48.276;14.416;2022-12-07T16:31:10;13.30;;;7.05;;
66609;SDS011;53468;48.276;14.416;2022-12-07T16:36:43;13.80;;;7.70;;
66609;SDS011;53468;48.276;14.416;2022-12-07T16:42:16;13.30;;;6.85;;
66609;SDS011;53468;48.276;14.416;2022-12-07T16:47:49;12.77;;;7.20;;
66609;SDS011;53468;48.276;14.416;2022-12-07T16:53:22;13.85;;;6.88;;
66609;SDS011;53468;48.276;14.416;2022-12-07T16:58:57;12.93;;;7.25;;
66609;SDS011;53468;48.276;14.416;2022-12-07T17:04:32;9.15;;;5.93;;
66609;SDS011;53468;48.276;14.416;2022-12-07T17:10:05;13.95;;;7.03;;
66609;SDS011;53468;48.276;14.416;2022-12-07T17:15:38;12.45;;;6.80;;
66609;SDS011;53468;48.276;14.416;2022-12-07T17:21:11;14.63;;;7.20;;
66609;SDS011;53468;48.276;14.416;2022-12-07T17:26:44;14.73;;;7.40;;
66609;SDS011;53468;48.276;14.416;2022-12-07T17:32:17;13.57;;;6.90;;
66609;SDS011;53468;48.276;14.416;2022-12-07T17:37:51;13.50;;;6.22;;
66609;SDS011;53468;48.276;14.416;2022-12-07T17:43:23;13.80;;;6.93;;
66609;SDS011;53468;48.276;14.416;2022-12-07T17:48:55;15.05;;;7.07;;
66609;SDS011;53468;48.276;14.416;2022-12-07T17:54:29;12.23;;;7.72;;
66609;SDS011;53468;48.276;14.416;2022-12-07T18:00:01;15.90;;;8.50;;
66609;SDS011;53468;48.276;14.416;2022-12-07T18:05:34;14.90;;;7.45;;
66609;SDS011;53468;48.276;14.416;2022-12-07T18:11:08;18.77;;;8.50;;
66609;SDS011;53468;48.276;14.416;2022-12-07T18:16:40;17.50;;;8.50;;
66609;SDS011;53468;48.276;14.416;2022-12-07T18:22:13;18.20;;;9.65;;
66609;SDS011;53468;48.276;14.416;2022-12-07T18:27:47;18.55;;;9.32;;
66609;SDS011;53468;48.276;14.416;2022-12-07T18:33:19;12.68;;;6.72;;
66609;SDS011;53468;48.276;14.416;2022-12-07T18:38:51;14.75;;;7.57;;
66609;SDS011;53468;48.276;14.416;2022-12-07T18:44:25;11.30;;;6.95;;
66609;SDS011;53468;48.276;14.416;2022-12-07T18:49:57;13.85;;;8.18;;
66609;SDS011;53468;48.276;14.416;2022-12-07T18:55:29;15.93;;;8.70;;
66609;SDS011;53468;48.276;14.416;2022-12-07T19:01:03;13.70;;;7.85;;
66609;SDS011;53468;48.276;14.416;2022-12-07T19:06:35;15.75;;;8.48;;
66609;SDS011;53468;48.276;14.416;2022-12-07T19:12:09;14.70;;;8.60;;
66609;SDS011;53468;48.276;14.416;2022-12-07T19:17:43;14.55;;;8.10;;
66609;SDS011;53468;48.276;14.416;2022-12-07T19:23:15;13.57;;;8.25;;
66609;SDS011;53468;48.276;14.416;2022-12-07T19:28:48;15.50;;;8.57;;
66609;SDS011;53468;48.276;14.416;2022-12-07T19:34:22;14.57;;;8.32;;
66609;SDS011;53468;48.276;14.416;2022-12-07T19:39:54;14.68;;;7.68;;
66609;SDS011;53468;48.276;14.416;2022-12-07T19:45:27;19.58;;;8.27;;
66609;SDS011;53468;48.276;14.416;2022-12-07T19:51:03;16.92;;;9.18;;
66609;SDS011;53468;48.276;14.416;2022-12-07T19:56:36;20.67;;;10.27;;
66609;SDS011;53468;48.276;14.416;2022-12-07T20:02:10;17.00;;;9.82;;
66609;SDS011;53468;48.276;14.416;2022-12-07T20:07:46;24.40;;;9.07;;
66609;SDS011;53468;48.276;14.416;2022-12-07T20:13:18;17.20;;;8.43;;
66609;SDS011;53468;48.276;14.416;2022-12-07T20:19:01;16.45;;;9.25;;
66609;SDS011;53468;48.276;14.416;2022-12-07T20:24:35;17.05;;;8.93;;
66609;SDS011;53468;48.276;14.416;2022-12-07T20:30:08;15.32;;;8.70;;
66609;SDS011;53468;48.276;14.416;2022-12-07T20:35:40;17.88;;;9.85;;
66609;SDS011;53468;48.276;14.416;2022-12-07T20:41:14;18.70;;;10.07;;
66609;SDS011;53468;48.276;14.416;2022-12-07T20:52:37;15.48;;;8.95;;
66609;SDS011;53468;48.276;14.416;2022-12-07T20:58:10;17.00;;;8.85;;
66609;SDS011;53468;48.276;14.416;2022-12-07T21:03:42;19.35;;;10.02;;
66609;SDS011;53468;48.276;14.416;2022-12-07T21:09:15;19.20;;;9.27;;
66609;SDS011;53468;48.276;14.416;2022-12-07T21:14:48;16.83;;;9.40;;
66609;SDS011;53468;48.276;14.416;2022-12-07T21:20:21;16.05;;;9.48;;
66609;SDS011;53468;48.276;14.416;2022-12-07T21:25:53;21.10;;;10.93;;
66609;SDS011;53468;48.276;14.416;2022-12-07T21:31:27;16.98;;;10.73;;
66609;SDS011;53468;48.276;14.416;2022-12-07T21:36:59;16.38;;;10.02;;
66609;SDS011;53468;48.276;14.416;2022-12-07T21:42:31;20.63;;;10.25;;
66609;SDS011;53468;48.276;14.416;2022-12-07T21:48:05;17.50;;;10.48;;
66609;SDS011;53468;48.276;14.416;2022-12-07T21:53:38;16.00;;;9.95;;
66609;SDS011;53468;48.276;14.416;2022-12-07T21:59:12;18.33;;;10.07;;
66609;SDS011;53468;48.276;14.416;2022-12-07T22:04:48;18.25;;;10.55;;
66609;SDS011;53468;48.276;14.416;2022-12-07T22:10:20;21.27;;;10.43;;
66609;SDS011;53468;48.276;14.416;2022-12-07T22:15:58;16.20;;;9.15;;
66609;SDS011;53468;48.276;14.416;2022-12-07T22:21:32;15.27;;;9.13;;
66609;SDS011;53468;48.276;14.416;2022-12-07T22:27:04;15.38;;;8.75;;
66609;SDS011;53468;48.276;14.416;2022-12-07T22:32:37;18.92;;;10.65;;
66609;SDS011;53468;48.276;14.416;2022-12-07T22:38:10;18.92;;;9.85;;
66609;SDS011;53468;48.276;14.416;2022-12-07T22:43:43;17.27;;;9.95;;
66609;SDS011;53468;48.276;14.416;2022-12-07T22:49:15;15.73;;;9.68;;
66609;SDS011;53468;48.276;14.416;2022-12-07T22:54:49;21.25;;;10.32;;
66609;SDS011;53468;48.276;14.416;2022-12-07T23:00:21;16.85;;;9.55;;
66609;SDS011;53468;48.276;14.416;2022-12-07T23:05:53;21.48;;;10.10;;
66609;SDS011;53468;48.276;14.416;2022-12-07T23:11:28;19.33;;;9.50;;
66609;SDS011;53468;48.276;14.416;2022-12-07T23:17:18;20.35;;;10.52;;
66609;SDS011;53468;48.276;14.416;2022-12-07T23:22:51;17.73;;;9.57;;
66609;SDS011;53468;48.276;14.416;2022-12-07T23:28:24;20.02;;;10.93;;
66609;SDS011;53468;48.276;14.416;2022-12-07T23:33:56;19.10;;;10.50;;
66609;SDS011;53468;48.276;14.416;2022-12-07T23:39:28;21.98;;;9.98;;
66609;SDS011;53468;48.276;14.416;2022-12-07T23:45:02;19.95;;;10.75;;
66609;SDS011;53468;48.276;14.416;2022-12-07T23:50:34;17.33;;;10.18;;
66609;SDS011;53468;48.276;14.416;2022-12-07T23:56:09;17.05;;;10.10;;
